Time;durP1;ratioP1;P1;durP2;ratioP2;P2;SDS_P1;SDS_P2;PMS_P1;PMS_P2;Temp;Humidity;BMP_temperature;BMP_pressure;BME280_temperature;BME280_humidity;BME280_pressure;Samples;Min_cycle;Max_cycle;Signal;HPM_P1;HPM_P2
2022/06/29 00:00:09;;;;;;;3.15;1.45;;;;;;;;;;4998900;28;20183;-65
2022/06/29 00:02:35;;;;;;;3.05;1.60;;;;;;;;;;5013309;28;20200;-65
2022/06/29 00:05:03;;;;;;;1.83;1.30;;;;;;;;;;5010644;28;20365;-65
2022/06/29 00:07:28;;;;;;;3.60;2.60;;;;;;;;;;5014997;28;20190;-65
2022/06/29 00:09:54;;;;;;;2.45;1.10;;;;;;;;;;5013657;28;20213;-65
2022/06/29 00:12:19;;;;;;;4.47;1.30;;;;;;;;;;5019126;28;20193;-65
2022/06/29 00:14:44;;;;;;;3.92;1.48;;;;;;;;;;5011360;28;20555;-64
2022/06/29 00:17:11;;;;;;;4.78;1.35;;;;;;;;;;5017254;28;20613;-64
2022/06/29 00:19:38;;;;;;;4.05;1.60;;;;;;;;;;5008543;28;20936;-64
2022/06/29 00:22:04;;;;;;;2.28;1.20;;;;;;;;;;5012835;28;20677;-64
2022/06/29 00:24:31;;;;;;;1.40;1.30;;;;;;;;;;5008382;28;20193;-64
2022/06/29 00:26:57;;;;;;;5.05;1.60;;;;;;;;;;5005550;28;20609;-64
2022/06/29 00:29:23;;;;;;;3.65;1.45;;;;;;;;;;5014197;28;20296;-65
2022/06/29 00:31:48;;;;;;;4.00;1.40;;;;;;;;;;5009821;28;20226;-65
2022/06/29 00:34:13;;;;;;;3.33;1.58;;;;;;;;;;5005204;28;20554;-65
2022/06/29 00:36:39;;;;;;;5.05;1.58;;;;;;;;;;4992761;28;20267;-65
2022/06/29 00:39:04;;;;;;;4.57;1.63;;;;;;;;;;4997026;28;20185;-65
2022/06/29 00:41:29;;;;;;;5.82;1.60;;;;;;;;;;5014751;28;20305;-65
2022/06/29 00:43:55;;;;;;;2.40;1.33;;;;;;;;;;5003029;28;20194;-65
2022/06/29 00:46:20;;;;;;;2.67;1.60;;;;;;;;;;4999585;28;20183;-65
2022/06/29 00:48:45;;;;;;;4.03;1.70;;;;;;;;;;5006262;28;20194;-64
2022/06/29 00:51:11;;;;;;;5.40;1.92;;;;;;;;;;5015034;28;20186;-64
2022/06/29 00:53:40;;;;;;;2.90;1.73;;;;;;;;;;5020466;28;20225;-64
2022/06/29 00:56:12;;;;;;;2.50;1.50;;;;;;;;;;5009279;28;20552;-65
2022/06/29 00:58:40;;;;;;;7.13;2.30;;;;;;;;;;5011618;28;20187;-65
2022/06/29 01:01:06;;;;;;;4.53;1.60;;;;;;;;;;5017632;28;20282;-65
2022/06/29 01:03:32;;;;;;;1.60;1.40;;;;;;;;;;5006853;28;20183;-65
2022/06/29 01:05:59;;;;;;;2.35;1.45;;;;;;;;;;5010636;28;20599;-65
2022/06/29 01:08:24;;;;;;;1.80;1.70;;;;;;;;;;5013885;28;20264;-65
2022/06/29 01:10:50;;;;;;;4.20;1.70;;;;;;;;;;4996883;28;20709;-65
2022/06/29 01:13:15;;;;;;;4.28;1.60;;;;;;;;;;5009052;28;20186;-65
2022/06/29 01:15:40;;;;;;;3.50;1.60;;;;;;;;;;5005503;28;20186;-65
2022/06/29 01:18:07;;;;;;;3.92;1.48;;;;;;;;;;5008169;28;20424;-64
2022/06/29 01:20:32;;;;;;;8.88;1.92;;;;;;;;;;5009731;28;20197;-64
2022/06/29 01:22:58;;;;;;;2.63;2.03;;;;;;;;;;5004676;28;20178;-64
2022/06/29 01:25:24;;;;;;;3.17;1.60;;;;;;;;;;5008238;28;20262;-64
2022/06/29 01:27:49;;;;;;;4.32;2.20;;;;;;;;;;5010665;28;20194;-64
2022/06/29 01:30:14;;;;;;;3.53;2.15;;;;;;;;;;5000855;28;20536;-64
2022/06/29 01:32:40;;;;;;;3.97;2.00;;;;;;;;;;5008273;28;20202;-65
2022/06/29 01:35:11;;;;;;;3.50;1.80;;;;;;;;;;5007797;28;20189;-64
2022/06/29 01:37:40;;;;;;;3.45;1.73;;;;;;;;;;5017277;28;20198;-64
2022/06/29 01:40:07;;;;;;;4.32;1.80;;;;;;;;;;5009055;28;20214;-64
2022/06/29 01:42:32;;;;;;;7.40;1.77;;;;;;;;;;5010502;28;20194;-64
2022/06/29 01:44:58;;;;;;;2.72;2.00;;;;;;;;;;5007665;28;20379;-64
2022/06/29 01:47:23;;;;;;;2.30;1.95;;;;;;;;;;5011005;28;20639;-65
2022/06/29 01:49:49;;;;;;;4.30;2.03;;;;;;;;;;5005731;28;20620;-65
2022/06/29 01:52:14;;;;;;;3.38;2.00;;;;;;;;;;5003417;28;20555;-64
2022/06/29 01:54:39;;;;;;;5.88;2.13;;;;;;;;;;4998728;28;20571;-64
2022/06/29 01:57:05;;;;;;;5.05;2.20;;;;;;;;;;5003366;28;20183;-65
2022/06/29 01:59:30;;;;;;;3.88;2.10;;;;;;;;;;5001712;28;20189;-65
2022/06/29 02:01:56;;;;;;;3.65;2.30;;;;;;;;;;5013403;28;20716;-65
2022/06/29 02:04:21;;;;;;;3.10;2.00;;;;;;;;;;5007816;28;20606;-65
2022/06/29 02:06:47;;;;;;;2.80;2.28;;;;;;;;;;5019857;28;20205;-65
2022/06/29 02:09:12;;;;;;;3.25;2.28;;;;;;;;;;5012216;28;20206;-66
2022/06/29 02:11:38;;;;;;;4.13;2.55;;;;;;;;;;5006946;28;20213;-65
2022/06/29 02:14:03;;;;;;;8.40;2.60;;;;;;;;;;5005623;28;20186;-65
2022/06/29 02:16:29;;;;;;;2.97;2.40;;;;;;;;;;5012365;28;20186;-65
2022/06/29 02:18:56;;;;;;;7.90;2.55;;;;;;;;;;5014402;28;20195;-65
2022/06/29 02:21:21;;;;;;;2.60;2.22;;;;;;;;;;5020031;28;20182;-65
2022/06/29 02:23:48;;;;;;;6.28;2.65;;;;;;;;;;5011272;28;20499;-65
2022/06/29 02:26:13;;;;;;;5.32;2.50;;;;;;;;;;5009044;28;20182;-65
2022/06/29 02:28:39;;;;;;;4.15;2.30;;;;;;;;;;5013352;28;20226;-64
2022/06/29 02:36:32;;;;;;;6.00;2.60;;;;;;;;;;5007209;28;20605;-64
2022/06/29 02:38:58;;;;;;;4.97;2.60;;;;;;;;;;5009086;28;20178;-65
2022/06/29 02:41:23;;;;;;;4.95;2.58;;;;;;;;;;5009807;28;20193;-65
2022/06/29 02:43:49;;;;;;;3.42;2.63;;;;;;;;;;5035195;28;20553;-65
2022/06/29 02:46:14;;;;;;;4.10;2.67;;;;;;;;;;5006047;28;20183;-65
2022/06/29 02:48:40;;;;;;;5.38;2.88;;;;;;;;;;4999672;28;20175;-64
2022/06/29 02:51:05;;;;;;;2.83;2.45;;;;;;;;;;5013332;28;20214;-64
2022/06/29 02:53:30;;;;;;;3.42;2.88;;;;;;;;;;5007525;28;20638;-64
2022/06/29 02:55:56;;;;;;;4.50;3.22;;;;;;;;;;4991553;28;20218;-65
2022/06/29 02:58:21;;;;;;;4.45;3.00;;;;;;;;;;5008331;28;20705;-65
2022/06/29 03:00:47;;;;;;;5.00;3.22;;;;;;;;;;5003746;28;20266;-65
2022/06/29 03:03:12;;;;;;;5.00;3.28;;;;;;;;;;5035944;28;20468;-65
2022/06/29 03:05:38;;;;;;;5.55;3.00;;;;;;;;;;5014827;28;20319;-66
2022/06/29 03:08:04;;;;;;;6.85;3.30;;;;;;;;;;5004612;28;20670;-66
2022/06/29 03:10:29;;;;;;;6.85;3.58;;;;;;;;;;5010717;28;20226;-66
2022/06/29 03:12:54;;;;;;;3.78;3.40;;;;;;;;;;5014640;28;20229;-65
2022/06/29 03:15:20;;;;;;;6.43;3.50;;;;;;;;;;5005481;28;20637;-65
2022/06/29 03:17:45;;;;;;;3.80;3.45;;;;;;;;;;5009056;28;20195;-65
2022/06/29 03:20:13;;;;;;;3.92;3.50;;;;;;;;;;5007697;28;20676;-65
2022/06/29 03:22:38;;;;;;;4.90;3.47;;;;;;;;;;5014799;28;20286;-65
2022/06/29 03:25:04;;;;;;;5.40;4.03;;;;;;;;;;5006311;28;20270;-65
2022/06/29 03:27:32;;;;;;;4.13;3.70;;;;;;;;;;5013704;28;20286;-65
2022/06/29 03:29:57;;;;;;;4.75;3.90;;;;;;;;;;5012517;28;20231;-66
2022/06/29 03:32:23;;;;;;;7.35;3.33;;;;;;;;;;5005946;28;20731;-66
2022/06/29 03:34:48;;;;;;;4.47;3.35;;;;;;;;;;5006183;28;20672;-66
2022/06/29 03:37:13;;;;;;;5.28;3.60;;;;;;;;;;5007072;28;20569;-65
2022/06/29 03:39:41;;;;;;;7.90;4.10;;;;;;;;;;5005587;28;20171;-65
2022/06/29 03:42:07;;;;;;;5.50;3.67;;;;;;;;;;5009698;28;20633;-65
2022/06/29 03:44:32;;;;;;;5.07;3.80;;;;;;;;;;5007689;28;20305;-65
2022/06/29 03:46:58;;;;;;;5.25;3.55;;;;;;;;;;5008212;28;20251;-65
2022/06/29 03:49:23;;;;;;;6.43;4.82;;;;;;;;;;5008506;28;20210;-66
2022/06/29 03:51:49;;;;;;;5.22;4.25;;;;;;;;;;5010203;28;20186;-65
2022/06/29 03:54:14;;;;;;;5.43;3.63;;;;;;;;;;5011218;28;20666;-65
2022/06/29 03:56:39;;;;;;;6.68;3.90;;;;;;;;;;5012752;28;20190;-65
2022/06/29 03:59:05;;;;;;;6.20;3.78;;;;;;;;;;5011134;28;20183;-65
2022/06/29 04:01:30;;;;;;;5.53;4.20;;;;;;;;;;5008528;28;20195;-64
2022/06/29 04:03:56;;;;;;;5.97;4.15;;;;;;;;;;5008482;28;20698;-65
2022/06/29 04:06:22;;;;;;;10.40;3.92;;;;;;;;;;5010175;28;20183;-65
2022/06/29 04:08:47;;;;;;;5.18;4.38;;;;;;;;;;5018424;28;20185;-65
2022/06/29 04:13:56;;;;;;;4.32;3.92;;;;;;;;;;5012477;28;20202;-65
2022/06/29 04:16:22;;;;;;;5.03;4.13;;;;;;;;;;5006143;28;20186;-65
2022/06/29 04:18:48;;;;;;;4.65;4.25;;;;;;;;;;5008442;28;20264;-66
2022/06/29 04:21:13;;;;;;;5.43;4.38;;;;;;;;;;4987919;28;20707;-65
2022/06/29 04:23:39;;;;;;;5.55;4.28;;;;;;;;;;5014615;28;20260;-65
2022/06/29 04:26:04;;;;;;;6.22;4.50;;;;;;;;;;5008763;28;20270;-65
2022/06/29 04:28:29;;;;;;;8.02;4.20;;;;;;;;;;5012597;28;20603;-65
2022/06/29 04:30:55;;;;;;;4.30;3.90;;;;;;;;;;5008915;28;20903;-65
2022/06/29 04:33:20;;;;;;;7.65;4.40;;;;;;;;;;5010412;28;20260;-65
2022/06/29 04:35:46;;;;;;;4.65;3.88;;;;;;;;;;5012682;28;20179;-65
2022/06/29 04:38:11;;;;;;;4.38;3.97;;;;;;;;;;5013633;28;20178;-66
2022/06/29 04:40:37;;;;;;;5.78;3.92;;;;;;;;;;5004645;28;20192;-66
2022/06/29 04:43:02;;;;;;;5.00;3.53;;;;;;;;;;5010046;28;20190;-66
2022/06/29 04:48:11;;;;;;;4.85;3.30;;;;;;;;;;5003237;28;20240;-66
2022/06/29 04:50:37;;;;;;;4.82;3.45;;;;;;;;;;5008611;28;20206;-66
2022/06/29 04:53:02;;;;;;;5.00;3.42;;;;;;;;;;5022541;28;20182;-66
2022/06/29 04:55:29;;;;;;;6.32;3.42;;;;;;;;;;5016629;28;20197;-66
2022/06/29 04:57:54;;;;;;;5.63;3.22;;;;;;;;;;5004123;28;20233;-65
2022/06/29 05:00:20;;;;;;;4.13;3.63;;;;;;;;;;5009843;28;20836;-65
2022/06/29 05:02:45;;;;;;;4.70;3.90;;;;;;;;;;5008247;28;20183;-65
2022/06/29 05:05:11;;;;;;;5.47;3.63;;;;;;;;;;5028067;28;20681;-66
2022/06/29 05:07:36;;;;;;;4.57;3.47;;;;;;;;;;5009176;28;20554;-66
2022/06/29 05:10:02;;;;;;;5.78;3.65;;;;;;;;;;5006236;28;21024;-66
2022/06/29 05:12:27;;;;;;;4.00;3.70;;;;;;;;;;5006992;28;20198;-66
2022/06/29 05:14:52;;;;;;;4.47;3.75;;;;;;;;;;5004773;28;20182;-66
2022/06/29 05:17:18;;;;;;;5.28;4.18;;;;;;;;;;5001880;28;20266;-66
2022/06/29 05:19:43;;;;;;;4.70;4.20;;;;;;;;;;5003980;28;20187;-66
2022/06/29 05:22:08;;;;;;;4.45;4.00;;;;;;;;;;5003851;28;20183;-66
2022/06/29 05:24:33;;;;;;;5.32;4.70;;;;;;;;;;5001593;28;20183;-66
2022/06/29 05:26:59;;;;;;;7.63;4.70;;;;;;;;;;5007015;28;20198;-66
2022/06/29 05:29:25;;;;;;;5.85;4.20;;;;;;;;;;5006557;28;20231;-66
2022/06/29 05:31:51;;;;;;;5.07;4.32;;;;;;;;;;5006025;28;20211;-66
2022/06/29 05:34:17;;;;;;;7.80;4.70;;;;;;;;;;5008247;28;20571;-66
2022/06/29 05:36:42;;;;;;;6.78;5.35;;;;;;;;;;5006274;28;20214;-66
2022/06/29 05:39:07;;;;;;;5.60;4.00;;;;;;;;;;5008381;28;20175;-67
2022/06/29 05:41:33;;;;;;;5.07;4.40;;;;;;;;;;5005815;28;20185;-66
2022/06/29 05:43:59;;;;;;;5.57;4.72;;;;;;;;;;5008806;28;20863;-66
2022/06/29 05:46:24;;;;;;;6.00;4.22;;;;;;;;;;5005211;28;20182;-65
2022/06/29 05:48:50;;;;;;;4.47;3.75;;;;;;;;;;5004129;28;20245;-65
2022/06/29 05:51:15;;;;;;;7.30;4.15;;;;;;;;;;4996420;28;20183;-66
2022/06/29 05:53:41;;;;;;;9.05;4.03;;;;;;;;;;5006719;28;20217;-65
2022/06/29 05:56:06;;;;;;;5.78;3.90;;;;;;;;;;5006332;28;20174;-65
2022/06/29 05:58:31;;;;;;;7.45;4.38;;;;;;;;;;4994224;28;20266;-65
2022/06/29 06:00:57;;;;;;;4.15;3.55;;;;;;;;;;5001562;28;20188;-65
2022/06/29 06:03:23;;;;;;;4.00;3.55;;;;;;;;;;5002934;28;20193;-64
2022/06/29 06:05:48;;;;;;;7.05;4.07;;;;;;;;;;5007367;28;20218;-66
2022/06/29 06:08:15;;;;;;;4.75;3.58;;;;;;;;;;5008154;28;20221;-66
2022/06/29 06:10:41;;;;;;;5.68;3.58;;;;;;;;;;5004552;28;20210;-66
2022/06/29 06:13:07;;;;;;;4.15;3.50;;;;;;;;;;5030171;28;20690;-65
2022/06/29 06:15:34;;;;;;;6.15;3.40;;;;;;;;;;5000619;28;20265;-67
2022/06/29 06:17:59;;;;;;;3.83;3.00;;;;;;;;;;4997699;28;20171;-66
2022/06/29 06:20:25;;;;;;;3.90;3.50;;;;;;;;;;5005777;28;20175;-66
2022/06/29 06:22:50;;;;;;;4.75;3.50;;;;;;;;;;5006362;28;20197;-65
2022/06/29 06:25:15;;;;;;;5.07;3.67;;;;;;;;;;5005666;28;20186;-65
2022/06/29 06:27:41;;;;;;;6.18;3.30;;;;;;;;;;5006846;28;20313;-66
2022/06/29 06:30:06;;;;;;;7.32;3.30;;;;;;;;;;5007428;28;20622;-65
2022/06/29 06:32:32;;;;;;;3.45;3.00;;;;;;;;;;5005676;28;20223;-64
2022/06/29 06:34:57;;;;;;;3.45;2.88;;;;;;;;;;5004762;28;20186;-67
2022/06/29 06:37:22;;;;;;;6.20;3.28;;;;;;;;;;4991082;28;20187;-66
2022/06/29 06:41:21;;;;;;;4.93;3.17;;;;;;;;;;4999384;28;20178;-66
2022/06/29 06:42:40;;;;;;;2.70;2.50;;;;;;;;;;5002608;28;20286;-66
2022/06/29 06:45:06;;;;;;;3.63;2.30;;;;;;;;;;4999748;28;20214;-67
2022/06/29 06:47:31;;;;;;;5.68;2.13;;;;;;;;;;5003072;28;20680;-64
2022/06/29 06:49:56;;;;;;;4.10;1.88;;;;;;;;;;4990758;28;20213;-66
2022/06/29 06:52:22;;;;;;;6.00;1.90;;;;;;;;;;4990972;28;20202;-66
2022/06/29 06:54:47;;;;;;;4.22;1.92;;;;;;;;;;5003969;28;20180;-65
2022/06/29 06:57:12;;;;;;;2.33;1.45;;;;;;;;;;4999252;28;20265;-66
2022/06/29 06:59:38;;;;;;;3.22;1.58;;;;;;;;;;5004561;28;20290;-66
2022/06/29 07:02:03;;;;;;;3.08;1.55;;;;;;;;;;5004058;28;20588;-65
2022/06/29 07:04:29;;;;;;;2.15;1.38;;;;;;;;;;4998262;28;20194;-66
2022/06/29 07:06:54;;;;;;;1.77;1.42;;;;;;;;;;4999969;28;20178;-66
2022/06/29 07:09:20;;;;;;;2.30;1.50;;;;;;;;;;5003484;28;20237;-66
2022/06/29 07:11:45;;;;;;;3.30;1.40;;;;;;;;;;4999011;28;20183;-66
2022/06/29 07:14:10;;;;;;;3.40;1.67;;;;;;;;;;4996901;28;20207;-66
2022/06/29 07:16:36;;;;;;;2.60;1.45;;;;;;;;;;5003732;28;20326;-67
2022/06/29 07:19:01;;;;;;;3.65;1.50;;;;;;;;;;5017508;28;20183;-66
2022/06/29 07:21:27;;;;;;;3.00;1.55;;;;;;;;;;5004781;28;20277;-65
2022/06/29 07:23:52;;;;;;;2.13;1.45;;;;;;;;;;5003298;28;20343;-68
2022/06/29 07:26:18;;;;;;;2.55;1.40;;;;;;;;;;5008076;28;20187;-67
2022/06/29 07:28:43;;;;;;;4.38;1.50;;;;;;;;;;5007648;28;20230;-66
2022/06/29 07:31:09;;;;;;;3.13;1.35;;;;;;;;;;5009858;28;20202;-66
2022/06/29 07:33:34;;;;;;;4.07;1.25;;;;;;;;;;5009290;28;20546;-68
2022/06/29 07:35:59;;;;;;;6.18;1.45;;;;;;;;;;5009857;28;20503;-64
2022/06/29 07:38:25;;;;;;;2.13;1.30;;;;;;;;;;5010664;28;20643;-65
2022/06/29 07:40:50;;;;;;;4.35;1.52;;;;;;;;;;5008095;28;20186;-65
2022/06/29 07:43:16;;;;;;;3.20;1.10;;;;;;;;;;5009515;28;20186;-64
2022/06/29 07:45:42;;;;;;;2.17;1.50;;;;;;;;;;5007961;28;20183;-65
2022/06/29 07:48:08;;;;;;;1.77;1.33;;;;;;;;;;5007780;28;20337;-67
2022/06/29 07:50:33;;;;;;;3.20;1.48;;;;;;;;;;5004897;28;20289;-64
2022/06/29 07:52:59;;;;;;;3.72;1.45;;;;;;;;;;5006833;28;20189;-66
2022/06/29 07:55:24;;;;;;;1.55;1.17;;;;;;;;;;5007415;28;20201;-65
2022/06/29 07:57:50;;;;;;;2.88;1.33;;;;;;;;;;5005267;28;20190;-66
2022/06/29 08:00:16;;;;;;;2.38;1.50;;;;;;;;;;5007347;28;20598;-66
2022/06/29 08:02:41;;;;;;;2.50;1.20;;;;;;;;;;5006626;28;20183;-65
2022/06/29 08:05:07;;;;;;;3.20;1.17;;;;;;;;;;5006199;28;20566;-66
2022/06/29 08:07:32;;;;;;;4.28;1.48;;;;;;;;;;5005778;28;20558;-65
2022/06/29 08:09:57;;;;;;;2.15;1.30;;;;;;;;;;5007853;28;20201;-65
2022/06/29 08:12:23;;;;;;;3.30;1.67;;;;;;;;;;5005451;28;20700;-66
2022/06/29 08:14:48;;;;;;;1.35;1.20;;;;;;;;;;5005069;28;20226;-66
2022/06/29 08:17:14;;;;;;;1.42;1.10;;;;;;;;;;5008484;28;20175;-67
2022/06/29 08:19:39;;;;;;;4.25;1.27;;;;;;;;;;5009691;28;20309;-66
2022/06/29 08:22:04;;;;;;;3.33;1.30;;;;;;;;;;5008942;28;20647;-68
2022/06/29 08:24:30;;;;;;;1.48;1.38;;;;;;;;;;5008743;28;20590;-66
2022/06/29 08:26:55;;;;;;;5.18;1.33;;;;;;;;;;5006502;28;20186;-66
2022/06/29 08:29:20;;;;;;;3.60;1.35;;;;;;;;;;5007145;28;20585;-66
2022/06/29 08:31:46;;;;;;;2.25;1.50;;;;;;;;;;5007852;28;20210;-65
2022/06/29 08:34:13;;;;;;;5.60;1.60;;;;;;;;;;5006236;28;20637;-66
2022/06/29 08:36:39;;;;;;;2.88;1.40;;;;;;;;;;5008654;28;20209;-66
2022/06/29 08:39:04;;;;;;;3.70;1.20;;;;;;;;;;5007310;28;20178;-66
2022/06/29 08:41:29;;;;;;;2.45;1.40;;;;;;;;;;5006352;28;20182;-66
2022/06/29 08:43:58;;;;;;;2.55;1.45;;;;;;;;;;5009678;28;20380;-66
2022/06/29 08:46:23;;;;;;;2.40;1.25;;;;;;;;;;5009197;28;20718;-67
2022/06/29 08:48:48;;;;;;;1.60;1.30;;;;;;;;;;5007647;28;20269;-66
2022/06/29 08:51:19;;;;;;;2.80;1.45;;;;;;;;;;5008400;28;20285;-66
2022/06/29 08:53:45;;;;;;;1.95;1.50;;;;;;;;;;5008928;28;20186;-66
2022/06/29 08:56:12;;;;;;;2.90;1.80;;;;;;;;;;5001821;28;20184;-66
2022/06/29 08:58:40;;;;;;;3.40;1.50;;;;;;;;;;5008221;28;20273;-65
2022/06/29 09:01:05;;;;;;;3.40;1.48;;;;;;;;;;5007614;28;20167;-65
2022/06/29 09:03:31;;;;;;;2.38;1.30;;;;;;;;;;5008902;28;20627;-65
2022/06/29 09:05:57;;;;;;;2.90;1.30;;;;;;;;;;5010181;28;20585;-66
2022/06/29 09:08:23;;;;;;;3.10;1.40;;;;;;;;;;4996198;28;20191;-67
2022/06/29 09:10:49;;;;;;;2.92;1.50;;;;;;;;;;5002456;28;20203;-66
2022/06/29 09:13:22;;;;;;;2.72;1.25;;;;;;;;;;5006482;28;20241;-66
2022/06/29 09:15:57;;;;;;;5.03;1.73;;;;;;;;;;5007663;28;20241;-66
2022/06/29 09:18:24;;;;;;;1.38;1.20;;;;;;;;;;5008952;28;20592;-65
2022/06/29 09:20:55;;;;;;;1.60;1.30;;;;;;;;;;5004260;28;20639;-66
2022/06/29 09:23:21;;;;;;;2.40;1.20;;;;;;;;;;4999082;28;20325;-66
2022/06/29 09:25:46;;;;;;;1.58;1.38;;;;;;;;;;5000950;28;20650;-65
2022/06/29 09:28:20;;;;;;;2.65;1.48;;;;;;;;;;5007912;28;20187;-66
2022/06/29 09:30:45;;;;;;;1.95;1.38;;;;;;;;;;5006542;28;20194;-67
2022/06/29 09:33:11;;;;;;;2.50;1.30;;;;;;;;;;5008803;28;20190;-65
2022/06/29 09:35:39;;;;;;;2.72;1.50;;;;;;;;;;5006398;28;20685;-66
2022/06/29 09:38:17;;;;;;;4.63;1.58;;;;;;;;;;5007076;28;20209;-65
2022/06/29 09:41:04;;;;;;;2.97;1.63;;;;;;;;;;5007284;28;20182;-66
2022/06/29 09:43:32;;;;;;;4.85;1.60;;;;;;;;;;5004778;28;20576;-67
2022/06/29 09:45:58;;;;;;;2.92;1.80;;;;;;;;;;5004327;28;20253;-66
2022/06/29 09:48:27;;;;;;;3.70;1.60;;;;;;;;;;5007032;28;20178;-66
2022/06/29 09:50:55;;;;;;;3.55;1.80;;;;;;;;;;5007979;28;20865;-66
2022/06/29 09:53:27;;;;;;;4.10;1.73;;;;;;;;;;5006162;28;20178;-66
2022/06/29 09:55:55;;;;;;;3.47;1.52;;;;;;;;;;5001555;28;20550;-66
2022/06/29 09:58:32;;;;;;;2.83;1.60;;;;;;;;;;5010249;28;20190;-66
2022/06/29 10:03:46;;;;;;;1.58;1.48;;;;;;;;;;5006831;28;20260;-66
2022/06/29 10:06:16;;;;;;;1.80;1.50;;;;;;;;;;5008644;28;20229;-65
2022/06/29 10:08:42;;;;;;;6.13;1.88;;;;;;;;;;5007463;28;20182;-65
2022/06/29 10:14:16;;;;;;;2.03;1.58;;;;;;;;;;5007304;28;20344;-66
2022/06/29 10:16:51;;;;;;;2.85;1.60;;;;;;;;;;5005201;28;20701;-66
2022/06/29 10:19:33;;;;;;;3.33;1.45;;;;;;;;;;5003621;28;20193;-65
2022/06/29 10:21:59;;;;;;;3.75;1.63;;;;;;;;;;5005673;28;20202;-66
2022/06/29 10:24:25;;;;;;;2.17;1.70;;;;;;;;;;5003306;28;20221;-66
2022/06/29 10:26:51;;;;;;;3.80;1.83;;;;;;;;;;5006316;28;20186;-66
2022/06/29 10:29:19;;;;;;;1.70;1.60;;;;;;;;;;5004652;28;20820;-66
2022/06/29 10:31:50;;;;;;;4.70;1.58;;;;;;;;;;5003180;28;20590;-66
2022/06/29 10:34:31;;;;;;;3.22;1.80;;;;;;;;;;4999266;28;20237;-66
2022/06/29 10:37:02;;;;;;;2.75;1.67;;;;;;;;;;5006391;28;20209;-66
2022/06/29 10:39:45;;;;;;;2.63;1.45;;;;;;;;;;5006184;28;20199;-66
2022/06/29 10:45:32;;;;;;;3.88;2.05;;;;;;;;;;5007652;28;20499;-67
2022/06/29 10:47:58;;;;;;;5.53;2.00;;;;;;;;;;5002475;28;20175;-66
2022/06/29 10:50:30;;;;;;;2.53;1.55;;;;;;;;;;4993930;28;20664;-67
2022/06/29 10:53:11;;;;;;;3.80;1.90;;;;;;;;;;5001239;28;20198;-66
2022/06/29 10:55:42;;;;;;;3.17;1.80;;;;;;;;;;5005660;28;20183;-66
2022/06/29 10:58:08;;;;;;;3.17;1.80;;;;;;;;;;5011883;28;20252;-66
2022/06/29 11:00:38;;;;;;;3.70;2.05;;;;;;;;;;5008119;28;20194;-66
2022/06/29 11:03:25;;;;;;;5.28;1.83;;;;;;;;;;5006728;28;20758;-66
2022/06/29 11:16:54;;;;;;;2.85;2.15;;;;;;;;;;5012535;28;20194;-65
2022/06/29 11:19:26;;;;;;;7.07;2.03;;;;;;;;;;5010484;28;20178;-66
2022/06/29 11:22:15;;;;;;;1.77;1.60;;;;;;;;;;5010475;28;20503;-66
2022/06/29 11:24:55;;;;;;;5.78;2.22;;;;;;;;;;5013215;28;20528;-66
2022/06/29 11:27:35;;;;;;;7.50;1.90;;;;;;;;;;5012049;28;20359;-66
2022/06/29 11:30:01;;;;;;;3.45;1.73;;;;;;;;;;5003065;28;20231;-66
2022/06/29 11:32:39;;;;;;;5.47;2.08;;;;;;;;;;5014430;28;20544;-67
2022/06/29 11:35:06;;;;;;;4.40;2.22;;;;;;;;;;5014481;28;20182;-66
2022/06/29 11:37:32;;;;;;;2.15;1.80;;;;;;;;;;5002479;28;20190;-71
2022/06/29 11:39:57;;;;;;;3.20;1.83;;;;;;;;;;5007082;28;20183;-64
2022/06/29 11:45:19;;;;;;;5.55;1.80;;;;;;;;;;5013965;28;20209;-65
2022/06/29 11:47:52;;;;;;;7.85;2.03;;;;;;;;;;5009519;28;20616;-65
2022/06/29 11:50:18;;;;;;;2.65;2.08;;;;;;;;;;4995014;28;20211;-66
2022/06/29 11:52:49;;;;;;;3.90;2.53;;;;;;;;;;5007600;28;20190;-66
2022/06/29 11:55:15;;;;;;;5.65;1.90;;;;;;;;;;5013657;28;20529;-65
2022/06/29 11:57:40;;;;;;;4.68;1.95;;;;;;;;;;5005296;28;20219;-63
2022/06/29 12:00:08;;;;;;;4.97;2.30;;;;;;;;;;5013902;28;20269;-65
2022/06/29 12:02:36;;;;;;;3.70;2.10;;;;;;;;;;5013303;28;20186;-68
2022/06/29 12:05:02;;;;;;;4.07;2.30;;;;;;;;;;5013027;28;20210;-67
2022/06/29 12:07:31;;;;;;;2.83;1.80;;;;;;;;;;5034406;28;20742;-65
2022/06/29 12:09:59;;;;;;;5.88;2.15;;;;;;;;;;5008686;28;20221;-67
2022/06/29 12:12:24;;;;;;;2.80;2.10;;;;;;;;;;4997296;28;20206;-65
2022/06/29 12:14:50;;;;;;;4.43;2.00;;;;;;;;;;4998572;28;20530;-66
2022/06/29 12:17:15;;;;;;;2.08;1.88;;;;;;;;;;5008352;28;20206;-66
2022/06/29 12:19:44;;;;;;;3.50;2.30;;;;;;;;;;5010225;28;20175;-68
2022/06/29 12:22:09;;;;;;;6.05;2.22;;;;;;;;;;5009177;28;20190;-67
2022/06/29 12:24:35;;;;;;;2.33;1.80;;;;;;;;;;5000419;28;20183;-67
2022/06/29 12:27:01;;;;;;;3.40;1.85;;;;;;;;;;5004475;28;20666;-65
2022/06/29 12:29:27;;;;;;;3.17;2.20;;;;;;;;;;5005291;28;20630;-65
2022/06/29 12:31:52;;;;;;;4.28;2.20;;;;;;;;;;5009821;28;20276;-64
2022/06/29 12:34:25;;;;;;;6.03;2.02;;;;;;;;;;4564894;28;10002835;-66
2022/06/29 12:36:51;;;;;;;2.50;2.10;;;;;;;;;;4992680;28;20265;-67
2022/06/29 12:39:16;;;;;;;2.95;2.30;;;;;;;;;;5002959;28;20191;-65
2022/06/29 12:41:42;;;;;;;4.70;2.28;;;;;;;;;;5006825;28;20265;-65
2022/06/29 12:44:08;;;;;;;2.78;1.50;;;;;;;;;;5006159;28;20296;-64
2022/06/29 12:46:33;;;;;;;3.53;1.83;;;;;;;;;;5005096;28;20197;-64
2022/06/29 12:49:00;;;;;;;2.22;1.70;;;;;;;;;;4997219;28;20210;-67
2022/06/29 12:51:26;;;;;;;3.20;1.50;;;;;;;;;;5000555;28;20183;-66
2022/06/29 12:53:51;;;;;;;2.67;1.88;;;;;;;;;;5001339;28;20677;-66
2022/06/29 12:56:17;;;;;;;2.85;1.85;;;;;;;;;;5006455;28;20171;-64
2022/06/29 12:58:42;;;;;;;5.18;1.90;;;;;;;;;;4997824;28;20186;-66
2022/06/29 13:01:08;;;;;;;4.80;2.22;;;;;;;;;;5004864;28;20725;-67
2022/06/29 13:03:35;;;;;;;3.75;1.80;;;;;;;;;;5000652;28;20629;-65
2022/06/29 13:06:00;;;;;;;4.47;2.15;;;;;;;;;;4996850;28;20643;-67
2022/06/29 13:08:25;;;;;;;5.15;1.48;;;;;;;;;;5005526;28;20183;-64
2022/06/29 13:10:51;;;;;;;2.80;1.90;;;;;;;;;;5006284;28;20203;-65
2022/06/29 13:13:16;;;;;;;4.28;1.88;;;;;;;;;;5005610;28;20714;-66
2022/06/29 13:15:42;;;;;;;3.38;1.88;;;;;;;;;;5005898;28;20174;-69
2022/06/29 13:18:07;;;;;;;4.32;1.98;;;;;;;;;;5001799;28;20597;-67
2022/06/29 13:20:32;;;;;;;1.95;1.73;;;;;;;;;;4991496;28;20186;-67
2022/06/29 13:22:58;;;;;;;3.63;1.83;;;;;;;;;;4997591;28;20191;-69
2022/06/29 13:25:23;;;;;;;2.38;1.92;;;;;;;;;;5006010;28;20233;-67
2022/06/29 13:27:49;;;;;;;1.75;1.60;;;;;;;;;;4999449;28;20183;-69
2022/06/29 13:30:14;;;;;;;3.60;2.08;;;;;;;;;;4998128;28;20239;-66
2022/06/29 13:32:40;;;;;;;2.00;1.73;;;;;;;;;;4998988;28;20690;-67
2022/06/29 13:35:08;;;;;;;2.58;1.80;;;;;;;;;;4999101;28;20190;-64
2022/06/29 13:37:34;;;;;;;3.60;2.22;;;;;;;;;;4991710;28;20218;-67
2022/06/29 13:39:59;;;;;;;3.75;1.67;;;;;;;;;;4996996;28;20209;-66
2022/06/29 13:42:25;;;;;;;2.97;2.00;;;;;;;;;;4993603;28;20194;-68
2022/06/29 13:44:50;;;;;;;2.80;2.15;;;;;;;;;;4993104;28;20183;-67
2022/06/29 13:47:15;;;;;;;3.97;2.22;;;;;;;;;;4999220;28;20278;-64
2022/06/29 13:49:41;;;;;;;6.60;2.03;;;;;;;;;;5003360;28;20700;-65
2022/06/29 13:52:06;;;;;;;4.80;2.03;;;;;;;;;;5005890;28;20183;-65
2022/06/29 13:54:32;;;;;;;4.75;1.90;;;;;;;;;;5007801;28;20225;-66
2022/06/29 13:56:57;;;;;;;1.85;1.67;;;;;;;;;;5003125;28;20198;-66
2022/06/29 13:59:22;;;;;;;1.80;1.70;;;;;;;;;;5007106;28;20197;-66
2022/06/29 14:01:48;;;;;;;2.65;1.70;;;;;;;;;;5006169;28;20292;-65
2022/06/29 14:04:13;;;;;;;6.57;2.08;;;;;;;;;;5006613;28;20180;-66
2022/06/29 14:06:39;;;;;;;3.53;1.88;;;;;;;;;;4993975;28;20191;-65
2022/06/29 14:09:04;;;;;;;1.60;1.50;;;;;;;;;;4994389;28;20274;-66
2022/06/29 14:11:31;;;;;;;2.85;1.52;;;;;;;;;;5001530;28;20689;-66
2022/06/29 14:13:56;;;;;;;3.33;1.65;;;;;;;;;;5004793;28;20597;-66
2022/06/29 14:16:21;;;;;;;1.70;1.60;;;;;;;;;;5007631;28;20244;-66
2022/06/29 14:18:47;;;;;;;2.83;1.85;;;;;;;;;;5002168;28;20391;-67
2022/06/29 14:21:12;;;;;;;3.50;1.40;;;;;;;;;;4999534;28;20206;-65
2022/06/29 14:23:38;;;;;;;3.78;1.38;;;;;;;;;;5000824;28;20248;-66
2022/06/29 14:26:03;;;;;;;3.22;1.70;;;;;;;;;;4997384;28;20329;-65
2022/06/29 14:28:28;;;;;;;4.25;2.00;;;;;;;;;;5007980;28;20239;-66
2022/06/29 14:30:54;;;;;;;2.47;2.05;;;;;;;;;;5005416;28;20210;-65
2022/06/29 14:33:19;;;;;;;1.95;1.75;;;;;;;;;;5005964;28;20269;-65
2022/06/29 14:35:45;;;;;;;3.15;1.83;;;;;;;;;;5003964;28;20233;-65
2022/06/29 14:38:11;;;;;;;2.35;1.95;;;;;;;;;;5002674;28;20250;-64
2022/06/29 14:40:36;;;;;;;2.40;1.80;;;;;;;;;;4991041;28;20183;-67
2022/06/29 14:43:02;;;;;;;2.78;2.08;;;;;;;;;;5005921;28;20622;-65
2022/06/29 14:45:27;;;;;;;2.42;1.63;;;;;;;;;;5001255;28;20201;-64
2022/06/29 14:47:53;;;;;;;3.28;2.00;;;;;;;;;;5003482;28;20187;-66
2022/06/29 14:50:21;;;;;;;4.75;1.90;;;;;;;;;;5002531;28;20669;-64
2022/06/29 14:52:47;;;;;;;3.65;1.60;;;;;;;;;;5007750;28;20204;-65
2022/06/29 14:55:12;;;;;;;3.20;1.65;;;;;;;;;;5006591;28;20201;-65
2022/06/29 14:57:38;;;;;;;3.75;1.70;;;;;;;;;;5006417;28;20653;-66
2022/06/29 15:00:05;;;;;;;3.95;1.92;;;;;;;;;;5006961;28;20634;-67
2022/06/29 15:02:30;;;;;;;4.50;2.28;;;;;;;;;;5007826;28;20228;-67
2022/06/29 15:04:56;;;;;;;2.08;1.80;;;;;;;;;;5003032;28;20210;-67
2022/06/29 15:07:21;;;;;;;2.33;1.90;;;;;;;;;;5007563;28;20188;-66
2022/06/29 15:09:47;;;;;;;3.47;2.15;;;;;;;;;;5005188;28;20194;-65
2022/06/29 15:12:12;;;;;;;1.80;1.70;;;;;;;;;;5003625;28;20285;-67